Terminal Aerodrome Forecast
Issued by NWS

Home | Current Version | Previous Version | Text Only | Print | Product List | Glossary On
Versions: 1 2 3 4 5 6 7 8 9 10 11 12 13 14 15 16 17 18 19 20 21 22 23 24 25 26 27 28 29 30 31 32 33 34 35 36 37 38 39 40 41 42 43
371
FTUS42 KMFL 110522
TAFOPF
TAF
KOPF 110522Z 1106/1206 32007KT P6SM SCT250
     FM111400 34011KT P6SM SCT250
     FM111700 02010KT P6SM SCT250
     FM120000 34004KT P6SM FEW035=

USA.gov is the U.S. government's official web portal to all federal, state and local government web resources and services.